sensor_id;sensor_type;location;lat;lon;timestamp;P1;durP1;ratioP1;P2;durP2;ratioP2
68858;SDS011;55864;49.238;8.092;2023-03-01T00:00:36;19.60;;;9.33;;
68858;SDS011;55864;49.238;8.092;2023-03-01T00:02:37;18.37;;;8.10;;
68858;SDS011;55864;49.238;8.092;2023-03-01T00:04:37;15.23;;;7.33;;
68858;SDS011;55864;49.238;8.092;2023-03-01T00:06:38;16.97;;;7.47;;
68858;SDS011;55864;49.238;8.092;2023-03-01T00:08:40;15.03;;;7.13;;
68858;SDS011;55864;49.238;8.092;2023-03-01T00:10:40;14.83;;;6.90;;
68858;SDS011;55864;49.238;8.092;2023-03-01T00:12:41;14.83;;;7.37;;
68858;SDS011;55864;49.238;8.092;2023-03-01T00:14:41;15.17;;;6.73;;
68858;SDS011;55864;49.238;8.092;2023-03-01T00:16:42;17.53;;;7.53;;
68858;SDS011;55864;49.238;8.092;2023-03-01T00:18:43;18.40;;;7.37;;
68858;SDS011;55864;49.238;8.092;2023-03-01T00:20:48;16.43;;;7.70;;
68858;SDS011;55864;49.238;8.092;2023-03-01T00:22:49;15.63;;;6.77;;
68858;SDS011;55864;49.238;8.092;2023-03-01T00:24:51;17.43;;;8.00;;
68858;SDS011;55864;49.238;8.092;2023-03-01T00:26:52;17.20;;;7.23;;
68858;SDS011;55864;49.238;8.092;2023-03-01T00:28:54;16.90;;;7.63;;
68858;SDS011;55864;49.238;8.092;2023-03-01T00:30:55;18.00;;;8.07;;
68858;SDS011;55864;49.238;8.092;2023-03-01T00:32:55;15.50;;;6.90;;
68858;SDS011;55864;49.238;8.092;2023-03-01T00:34:57;16.93;;;7.93;;
68858;SDS011;55864;49.238;8.092;2023-03-01T00:36:57;19.20;;;7.83;;
68858;SDS011;55864;49.238;8.092;2023-03-01T00:38:58;17.67;;;7.57;;
68858;SDS011;55864;49.238;8.092;2023-03-01T00:41:04;16.30;;;7.27;;
68858;SDS011;55864;49.238;8.092;2023-03-01T00:43:05;13.33;;;7.10;;
68858;SDS011;55864;49.238;8.092;2023-03-01T00:45:06;16.00;;;7.47;;
68858;SDS011;55864;49.238;8.092;2023-03-01T00:47:07;19.83;;;7.87;;
68858;SDS011;55864;49.238;8.092;2023-03-01T00:49:08;19.73;;;7.83;;
68858;SDS011;55864;49.238;8.092;2023-03-01T00:51:09;16.30;;;7.47;;
68858;SDS011;55864;49.238;8.092;2023-03-01T00:53:11;18.77;;;8.40;;
68858;SDS011;55864;49.238;8.092;2023-03-01T00:55:12;20.60;;;8.00;;
68858;SDS011;55864;49.238;8.092;2023-03-01T00:57:15;15.93;;;7.40;;
68858;SDS011;55864;49.238;8.092;2023-03-01T00:59:15;15.77;;;6.90;;
68858;SDS011;55864;49.238;8.092;2023-03-01T01:01:17;13.93;;;6.40;;
68858;SDS011;55864;49.238;8.092;2023-03-01T01:03:19;15.68;;;7.03;;
68858;SDS011;55864;49.238;8.092;2023-03-01T01:05:19;18.03;;;7.57;;
68858;SDS011;55864;49.238;8.092;2023-03-01T01:07:20;17.37;;;7.60;;
68858;SDS011;55864;49.238;8.092;2023-03-01T01:09:20;17.47;;;7.60;;
68858;SDS011;55864;49.238;8.092;2023-03-01T01:11:22;15.63;;;6.93;;
68858;SDS011;55864;49.238;8.092;2023-03-01T01:13:25;16.38;;;7.13;;
68858;SDS011;55864;49.238;8.092;2023-03-01T01:15:25;16.30;;;6.97;;
68858;SDS011;55864;49.238;8.092;2023-03-01T01:17:26;16.90;;;7.53;;
68858;SDS011;55864;49.238;8.092;2023-03-01T01:19:27;16.37;;;7.67;;
68858;SDS011;55864;49.238;8.092;2023-03-01T01:21:29;17.17;;;7.80;;
68858;SDS011;55864;49.238;8.092;2023-03-01T01:23:30;16.33;;;7.33;;
68858;SDS011;55864;49.238;8.092;2023-03-01T01:25:30;17.43;;;7.87;;
68858;SDS011;55864;49.238;8.092;2023-03-01T01:27:34;16.20;;;7.27;;
68858;SDS011;55864;49.238;8.092;2023-03-01T01:29:36;17.53;;;7.50;;
68858;SDS011;55864;49.238;8.092;2023-03-01T01:31:38;18.23;;;8.27;;
68858;SDS011;55864;49.238;8.092;2023-03-01T01:33:39;17.30;;;8.10;;
68858;SDS011;55864;49.238;8.092;2023-03-01T01:35:40;19.73;;;7.43;;
68858;SDS011;55864;49.238;8.092;2023-03-01T01:37:40;16.33;;;8.13;;
68858;SDS011;55864;49.238;8.092;2023-03-01T01:39:41;18.13;;;8.03;;
68858;SDS011;55864;49.238;8.092;2023-03-01T01:41:42;18.43;;;8.43;;
68858;SDS011;55864;49.238;8.092;2023-03-01T01:43:43;18.47;;;8.07;;
68858;SDS011;55864;49.238;8.092;2023-03-01T01:45:48;17.83;;;8.48;;
68858;SDS011;55864;49.238;8.092;2023-03-01T01:47:49;19.30;;;8.32;;
68858;SDS011;55864;49.238;8.092;2023-03-01T01:49:51;16.77;;;7.17;;
68858;SDS011;55864;49.238;8.092;2023-03-01T01:53:58;16.58;;;7.57;;
68858;SDS011;55864;49.238;8.092;2023-03-01T01:56:00;17.25;;;7.90;;
68858;SDS011;55864;49.238;8.092;2023-03-01T01:58:03;16.10;;;7.67;;
68858;SDS011;55864;49.238;8.092;2023-03-01T02:00:09;17.03;;;7.47;;
68858;SDS011;55864;49.238;8.092;2023-03-01T02:02:15;18.00;;;8.00;;
68858;SDS011;55864;49.238;8.092;2023-03-01T02:04:16;20.20;;;8.53;;
68858;SDS011;55864;49.238;8.092;2023-03-01T02:06:18;17.10;;;8.40;;
68858;SDS011;55864;49.238;8.092;2023-03-01T02:08:25;18.17;;;8.20;;
68858;SDS011;55864;49.238;8.092;2023-03-01T02:10:30;19.03;;;8.00;;
68858;SDS011;55864;49.238;8.092;2023-03-01T02:12:33;18.58;;;7.90;;
68858;SDS011;55864;49.238;8.092;2023-03-01T02:14:39;20.13;;;8.23;;
68858;SDS011;55864;49.238;8.092;2023-03-01T02:16:39;19.07;;;8.23;;
68858;SDS011;55864;49.238;8.092;2023-03-01T02:18:42;21.23;;;8.37;;
68858;SDS011;55864;49.238;8.092;2023-03-01T02:20:44;17.90;;;8.37;;
68858;SDS011;55864;49.238;8.092;2023-03-01T02:22:56;20.57;;;8.87;;
68858;SDS011;55864;49.238;8.092;2023-03-01T02:25:06;19.13;;;8.97;;
68858;SDS011;55864;49.238;8.092;2023-03-01T02:27:17;20.60;;;8.80;;
68858;SDS011;55864;49.238;8.092;2023-03-01T02:29:24;20.40;;;9.00;;
68858;SDS011;55864;49.238;8.092;2023-03-01T02:31:26;20.43;;;8.87;;
68858;SDS011;55864;49.238;8.092;2023-03-01T02:33:27;20.53;;;8.83;;
68858;SDS011;55864;49.238;8.092;2023-03-01T02:35:28;21.10;;;9.30;;
68858;SDS011;55864;49.238;8.092;2023-03-01T02:37:32;20.98;;;9.23;;
68858;SDS011;55864;49.238;8.092;2023-03-01T02:39:33;19.03;;;8.73;;
68858;SDS011;55864;49.238;8.092;2023-03-01T02:41:41;21.40;;;9.33;;
68858;SDS011;55864;49.238;8.092;2023-03-01T02:43:46;22.07;;;9.30;;
68858;SDS011;55864;49.238;8.092;2023-03-01T02:45:50;19.97;;;8.73;;
68858;SDS011;55864;49.238;8.092;2023-03-01T02:47:53;19.27;;;8.70;;
68858;SDS011;55864;49.238;8.092;2023-03-01T02:49:54;20.03;;;8.90;;
68858;SDS011;55864;49.238;8.092;2023-03-01T02:52:05;22.13;;;9.53;;
68858;SDS011;55864;49.238;8.092;2023-03-01T02:54:19;18.23;;;8.00;;
68858;SDS011;55864;49.238;8.092;2023-03-01T02:56:25;20.40;;;8.60;;
68858;SDS011;55864;49.238;8.092;2023-03-01T02:58:26;23.43;;;9.43;;
68858;SDS011;55864;49.238;8.092;2023-03-01T03:00:28;21.30;;;8.73;;
68858;SDS011;55864;49.238;8.092;2023-03-01T03:02:35;19.20;;;8.37;;
68858;SDS011;55864;49.238;8.092;2023-03-01T03:04:39;19.30;;;8.80;;
68858;SDS011;55864;49.238;8.092;2023-03-01T03:06:41;17.70;;;8.00;;
68858;SDS011;55864;49.238;8.092;2023-03-01T03:08:41;20.40;;;8.57;;
68858;SDS011;55864;49.238;8.092;2023-03-01T03:10:43;18.00;;;8.10;;
68858;SDS011;55864;49.238;8.092;2023-03-01T03:12:43;21.73;;;8.90;;
68858;SDS011;55864;49.238;8.092;2023-03-01T03:14:44;18.03;;;8.30;;
68858;SDS011;55864;49.238;8.092;2023-03-01T03:16:45;18.87;;;8.30;;
68858;SDS011;55864;49.238;8.092;2023-03-01T03:18:49;17.45;;;8.18;;
68858;SDS011;55864;49.238;8.092;2023-03-01T03:20:49;17.53;;;8.27;;
68858;SDS011;55864;49.238;8.092;2023-03-01T03:22:50;17.73;;;8.23;;
68858;SDS011;55864;49.238;8.092;2023-03-01T03:24:52;17.17;;;8.15;;
68858;SDS011;55864;49.238;8.092;2023-03-01T03:26:53;20.20;;;8.13;;
68858;SDS011;55864;49.238;8.092;2023-03-01T03:28:53;19.67;;;8.63;;
68858;SDS011;55864;49.238;8.092;2023-03-01T03:30:54;22.00;;;9.53;;
68858;SDS011;55864;49.238;8.092;2023-03-01T03:32:54;18.03;;;8.47;;
68858;SDS011;55864;49.238;8.092;2023-03-01T03:34:57;18.27;;;8.17;;
68858;SDS011;55864;49.238;8.092;2023-03-01T03:36:58;18.03;;;9.17;;
68858;SDS011;55864;49.238;8.092;2023-03-01T03:38:58;17.53;;;8.13;;
68858;SDS011;55864;49.238;8.092;2023-03-01T03:40:59;18.47;;;8.40;;
68858;SDS011;55864;49.238;8.092;2023-03-01T03:43:02;17.92;;;8.85;;
68858;SDS011;55864;49.238;8.092;2023-03-01T03:45:03;17.33;;;8.17;;
68858;SDS011;55864;49.238;8.092;2023-03-01T03:47:04;18.93;;;8.83;;
68858;SDS011;55864;49.238;8.092;2023-03-01T03:49:04;19.33;;;8.23;;
68858;SDS011;55864;49.238;8.092;2023-03-01T03:51:06;19.53;;;8.97;;
68858;SDS011;55864;49.238;8.092;2023-03-01T03:53:10;20.40;;;8.97;;
68858;SDS011;55864;49.238;8.092;2023-03-01T03:55:12;18.10;;;8.33;;
68858;SDS011;55864;49.238;8.092;2023-03-01T03:57:12;19.17;;;9.43;;
68858;SDS011;55864;49.238;8.092;2023-03-01T03:59:13;18.83;;;8.40;;
68858;SDS011;55864;49.238;8.092;2023-03-01T04:01:13;19.27;;;8.73;;
68858;SDS011;55864;49.238;8.092;2023-03-01T04:03:14;21.07;;;9.50;;
68858;SDS011;55864;49.238;8.092;2023-03-01T04:05:17;20.00;;;8.53;;
68858;SDS011;55864;49.238;8.092;2023-03-01T04:07:20;19.50;;;9.18;;
68858;SDS011;55864;49.238;8.092;2023-03-01T04:09:20;20.10;;;8.53;;
68858;SDS011;55864;49.238;8.092;2023-03-01T04:11:21;20.47;;;8.17;;
68858;SDS011;55864;49.238;8.092;2023-03-01T04:13:22;19.37;;;9.40;;
68858;SDS011;55864;49.238;8.092;2023-03-01T04:15:23;18.07;;;8.80;;
68858;SDS011;55864;49.238;8.092;2023-03-01T04:17:24;23.00;;;9.37;;
68858;SDS011;55864;49.238;8.092;2023-03-01T04:19:25;22.60;;;9.93;;
68858;SDS011;55864;49.238;8.092;2023-03-01T04:21:25;21.40;;;9.70;;
68858;SDS011;55864;49.238;8.092;2023-03-01T04:23:27;20.33;;;8.83;;
68858;SDS011;55864;49.238;8.092;2023-03-01T04:25:28;18.93;;;9.73;;
68858;SDS011;55864;49.238;8.092;2023-03-01T04:27:28;22.60;;;8.80;;
68858;SDS011;55864;49.238;8.092;2023-03-01T04:29:29;22.23;;;9.90;;
68858;SDS011;55864;49.238;8.092;2023-03-01T04:31:29;20.03;;;9.43;;
68858;SDS011;55864;49.238;8.092;2023-03-01T04:33:30;20.57;;;8.80;;
68858;SDS011;55864;49.238;8.092;2023-03-01T04:35:31;21.27;;;9.37;;
68858;SDS011;55864;49.238;8.092;2023-03-01T04:37:32;21.53;;;9.60;;
68858;SDS011;55864;49.238;8.092;2023-03-01T04:39:34;22.17;;;9.70;;
68858;SDS011;55864;49.238;8.092;2023-03-01T04:41:34;23.63;;;8.97;;
68858;SDS011;55864;49.238;8.092;2023-03-01T04:43:35;18.77;;;8.73;;
68858;SDS011;55864;49.238;8.092;2023-03-01T04:45:36;20.20;;;9.50;;
68858;SDS011;55864;49.238;8.092;2023-03-01T04:47:37;19.90;;;8.90;;
68858;SDS011;55864;49.238;8.092;2023-03-01T04:49:37;19.77;;;9.03;;
68858;SDS011;55864;49.238;8.092;2023-03-01T04:51:38;18.13;;;8.63;;
68858;SDS011;55864;49.238;8.092;2023-03-01T04:53:38;19.27;;;9.30;;
68858;SDS011;55864;49.238;8.092;2023-03-01T04:55:41;19.57;;;9.23;;
68858;SDS011;55864;49.238;8.092;2023-03-01T04:57:41;21.10;;;9.30;;
68858;SDS011;55864;49.238;8.092;2023-03-01T04:59:42;25.87;;;9.57;;
68858;SDS011;55864;49.238;8.092;2023-03-01T05:01:42;21.27;;;9.70;;
68858;SDS011;55864;49.238;8.092;2023-03-01T05:03:43;25.50;;;9.80;;
68858;SDS011;55864;49.238;8.092;2023-03-01T05:05:45;25.37;;;9.73;;
68858;SDS011;55864;49.238;8.092;2023-03-01T05:07:47;19.13;;;8.67;;
68858;SDS011;55864;49.238;8.092;2023-03-01T05:09:47;20.37;;;9.30;;
68858;SDS011;55864;49.238;8.092;2023-03-01T05:11:49;22.87;;;9.80;;
68858;SDS011;55864;49.238;8.092;2023-03-01T05:13:50;20.53;;;9.70;;
68858;SDS011;55864;49.238;8.092;2023-03-01T05:15:53;19.47;;;9.00;;
68858;SDS011;55864;49.238;8.092;2023-03-01T05:17:55;20.17;;;10.03;;
68858;SDS011;55864;49.238;8.092;2023-03-01T05:19:57;23.52;;;10.02;;
68858;SDS011;55864;49.238;8.092;2023-03-01T05:21:58;23.53;;;10.80;;
68858;SDS011;55864;49.238;8.092;2023-03-01T05:23:58;24.50;;;10.27;;
68858;SDS011;55864;49.238;8.092;2023-03-01T05:25:59;23.43;;;10.23;;
68858;SDS011;55864;49.238;8.092;2023-03-01T05:28:02;21.13;;;9.40;;
68858;SDS011;55864;49.238;8.092;2023-03-01T05:30:03;21.77;;;9.73;;
68858;SDS011;55864;49.238;8.092;2023-03-01T05:32:05;20.33;;;9.30;;
68858;SDS011;55864;49.238;8.092;2023-03-01T05:34:05;23.40;;;11.10;;
68858;SDS011;55864;49.238;8.092;2023-03-01T05:36:06;23.90;;;9.23;;
68858;SDS011;55864;49.238;8.092;2023-03-01T05:38:08;32.57;;;12.27;;
68858;SDS011;55864;49.238;8.092;2023-03-01T05:40:09;32.10;;;12.47;;
68858;SDS011;55864;49.238;8.092;2023-03-01T05:42:11;33.93;;;12.33;;
68858;SDS011;55864;49.238;8.092;2023-03-01T05:44:13;33.63;;;11.10;;
68858;SDS011;55864;49.238;8.092;2023-03-01T05:46:14;37.90;;;12.13;;
68858;SDS011;55864;49.238;8.092;2023-03-01T05:48:14;36.17;;;13.10;;
68858;SDS011;55864;49.238;8.092;2023-03-01T05:50:15;27.67;;;11.17;;
68858;SDS011;55864;49.238;8.092;2023-03-01T05:52:18;28.48;;;10.80;;
68858;SDS011;55864;49.238;8.092;2023-03-01T05:54:18;26.57;;;10.93;;
68858;SDS011;55864;49.238;8.092;2023-03-01T05:56:19;23.13;;;9.90;;
68858;SDS011;55864;49.238;8.092;2023-03-01T05:58:20;22.87;;;10.10;;
68858;SDS011;55864;49.238;8.092;2023-03-01T06:00:22;25.27;;;10.67;;
68858;SDS011;55864;49.238;8.092;2023-03-01T06:02:22;25.70;;;10.90;;
68858;SDS011;55864;49.238;8.092;2023-03-01T06:04:23;23.80;;;10.53;;
68858;SDS011;55864;49.238;8.092;2023-03-01T06:06:23;24.33;;;11.07;;
68858;SDS011;55864;49.238;8.092;2023-03-01T06:08:24;25.17;;;11.10;;
68858;SDS011;55864;49.238;8.092;2023-03-01T06:10:25;25.17;;;10.07;;
68858;SDS011;55864;49.238;8.092;2023-03-01T06:12:26;29.83;;;10.67;;
68858;SDS011;55864;49.238;8.092;2023-03-01T06:14:29;24.33;;;10.23;;
68858;SDS011;55864;49.238;8.092;2023-03-01T06:16:31;23.27;;;10.17;;
68858;SDS011;55864;49.238;8.092;2023-03-01T06:18:32;24.00;;;9.73;;
68858;SDS011;55864;49.238;8.092;2023-03-01T06:20:32;22.37;;;10.33;;
68858;SDS011;55864;49.238;8.092;2023-03-01T06:22:33;33.83;;;12.90;;
68858;SDS011;55864;49.238;8.092;2023-03-01T06:24:33;28.97;;;12.40;;
68858;SDS011;55864;49.238;8.092;2023-03-01T06:26:34;27.20;;;11.27;;
68858;SDS011;55864;49.238;8.092;2023-03-01T06:28:34;23.83;;;10.60;;
68858;SDS011;55864;49.238;8.092;2023-03-01T06:30:35;26.57;;;10.90;;
68858;SDS011;55864;49.238;8.092;2023-03-01T06:32:37;26.20;;;10.77;;
68858;SDS011;55864;49.238;8.092;2023-03-01T06:34:38;23.93;;;11.13;;
68858;SDS011;55864;49.238;8.092;2023-03-01T06:36:39;23.10;;;10.37;;
68858;SDS011;55864;49.238;8.092;2023-03-01T06:38:39;25.23;;;10.50;;
68858;SDS011;55864;49.238;8.092;2023-03-01T06:40:40;24.07;;;10.57;;
68858;SDS011;55864;49.238;8.092;2023-03-01T06:42:42;25.23;;;11.00;;
68858;SDS011;55864;49.238;8.092;2023-03-01T06:44:44;24.33;;;10.32;;
68858;SDS011;55864;49.238;8.092;2023-03-01T06:46:44;26.60;;;11.63;;
68858;SDS011;55864;49.238;8.092;2023-03-01T06:48:47;24.53;;;9.97;;
68858;SDS011;55864;49.238;8.092;2023-03-01T06:50:47;25.07;;;11.03;;
68858;SDS011;55864;49.238;8.092;2023-03-01T06:52:48;30.47;;;11.33;;
68858;SDS011;55864;49.238;8.092;2023-03-01T06:54:55;27.40;;;10.80;;
68858;SDS011;55864;49.238;8.092;2023-03-01T06:56:55;28.00;;;10.80;;
68858;SDS011;55864;49.238;8.092;2023-03-01T06:58:56;26.50;;;10.97;;
68858;SDS011;55864;49.238;8.092;2023-03-01T07:00:56;28.13;;;12.70;;
68858;SDS011;55864;49.238;8.092;2023-03-01T07:02:58;25.43;;;11.13;;
68858;SDS011;55864;49.238;8.092;2023-03-01T07:05:01;24.63;;;10.63;;
68858;SDS011;55864;49.238;8.092;2023-03-01T07:07:01;25.13;;;11.23;;
68858;SDS011;55864;49.238;8.092;2023-03-01T07:09:02;24.87;;;10.40;;
68858;SDS011;55864;49.238;8.092;2023-03-01T07:11:03;24.77;;;10.97;;
68858;SDS011;55864;49.238;8.092;2023-03-01T07:13:03;24.13;;;10.57;;
68858;SDS011;55864;49.238;8.092;2023-03-01T07:15:05;25.83;;;11.27;;
68858;SDS011;55864;49.238;8.092;2023-03-01T07:17:06;26.45;;;10.65;;
68858;SDS011;55864;49.238;8.092;2023-03-01T07:19:07;24.03;;;10.53;;
68858;SDS011;55864;49.238;8.092;2023-03-01T07:21:11;25.93;;;11.13;;
68858;SDS011;55864;49.238;8.092;2023-03-01T07:23:13;27.00;;;10.23;;
68858;SDS011;55864;49.238;8.092;2023-03-01T07:25:14;24.40;;;10.70;;
68858;SDS011;55864;49.238;8.092;2023-03-01T07:27:14;24.87;;;10.77;;
68858;SDS011;55864;49.238;8.092;2023-03-01T07:29:15;24.37;;;10.63;;
68858;SDS011;55864;49.238;8.092;2023-03-01T07:31:15;25.13;;;11.03;;
68858;SDS011;55864;49.238;8.092;2023-03-01T07:33:16;23.57;;;10.53;;
68858;SDS011;55864;49.238;8.092;2023-03-01T07:35:17;26.17;;;11.10;;
68858;SDS011;55864;49.238;8.092;2023-03-01T07:37:19;25.93;;;11.70;;
68858;SDS011;55864;49.238;8.092;2023-03-01T07:39:19;24.90;;;11.00;;
68858;SDS011;55864;49.238;8.092;2023-03-01T07:41:20;22.13;;;10.27;;
68858;SDS011;55864;49.238;8.092;2023-03-01T07:43:20;24.83;;;10.47;;
68858;SDS011;55864;49.238;8.092;2023-03-01T07:45:21;27.40;;;10.87;;
68858;SDS011;55864;49.238;8.092;2023-03-01T07:47:22;24.10;;;10.90;;
68858;SDS011;55864;49.238;8.092;2023-03-01T07:49:22;23.80;;;10.33;;
68858;SDS011;55864;49.238;8.092;2023-03-01T07:51:23;25.17;;;10.70;;
68858;SDS011;55864;49.238;8.092;2023-03-01T07:53:25;28.57;;;12.33;;
68858;SDS011;55864;49.238;8.092;2023-03-01T07:55:25;23.73;;;10.50;;
68858;SDS011;55864;49.238;8.092;2023-03-01T07:57:26;27.83;;;11.47;;
68858;SDS011;55864;49.238;8.092;2023-03-01T07:59:26;27.73;;;12.07;;
68858;SDS011;55864;49.238;8.092;2023-03-01T08:01:27;24.07;;;10.73;;
68858;SDS011;55864;49.238;8.092;2023-03-01T08:03:27;25.07;;;10.27;;
68858;SDS011;55864;49.238;8.092;2023-03-01T08:05:28;25.27;;;10.90;;
68858;SDS011;55864;49.238;8.092;2023-03-01T08:07:29;23.80;;;10.07;;
68858;SDS011;55864;49.238;8.092;2023-03-01T08:09:31;24.63;;;11.13;;
68858;SDS011;55864;49.238;8.092;2023-03-01T08:11:31;24.73;;;11.53;;
68858;SDS011;55864;49.238;8.092;2023-03-01T08:13:32;26.40;;;11.83;;
68858;SDS011;55864;49.238;8.092;2023-03-01T08:15:33;30.47;;;12.50;;
68858;SDS011;55864;49.238;8.092;2023-03-01T08:17:33;26.03;;;10.93;;
68858;SDS011;55864;49.238;8.092;2023-03-01T08:19:34;23.97;;;10.97;;
68858;SDS011;55864;49.238;8.092;2023-03-01T08:21:34;24.77;;;10.67;;
68858;SDS011;55864;49.238;8.092;2023-03-01T08:23:35;23.70;;;10.73;;
68858;SDS011;55864;49.238;8.092;2023-03-01T08:25:38;26.57;;;11.50;;
68858;SDS011;55864;49.238;8.092;2023-03-01T08:27:39;23.73;;;10.70;;
68858;SDS011;55864;49.238;8.092;2023-03-01T08:29:39;23.07;;;10.57;;
68858;SDS011;55864;49.238;8.092;2023-03-01T08:31:40;22.57;;;10.33;;
68858;SDS011;55864;49.238;8.092;2023-03-01T08:33:41;25.30;;;11.10;;
68858;SDS011;55864;49.238;8.092;2023-03-01T08:35:41;25.10;;;10.73;;
68858;SDS011;55864;49.238;8.092;2023-03-01T08:37:42;22.33;;;10.37;;
68858;SDS011;55864;49.238;8.092;2023-03-01T08:39:42;25.53;;;11.30;;
68858;SDS011;55864;49.238;8.092;2023-03-01T08:41:44;26.50;;;10.57;;
68858;SDS011;55864;49.238;8.092;2023-03-01T08:43:45;22.43;;;10.87;;
68858;SDS011;55864;49.238;8.092;2023-03-01T08:45:48;25.20;;;11.73;;
68858;SDS011;55864;49.238;8.092;2023-03-01T08:47:51;24.40;;;10.67;;
68858;SDS011;55864;49.238;8.092;2023-03-01T08:49:52;24.70;;;10.70;;
68858;SDS011;55864;49.238;8.092;2023-03-01T08:51:52;23.83;;;10.70;;
68858;SDS011;55864;49.238;8.092;2023-03-01T08:53:53;23.53;;;11.10;;
68858;SDS011;55864;49.238;8.092;2023-03-01T08:55:53;25.90;;;11.00;;
68858;SDS011;55864;49.238;8.092;2023-03-01T08:57:56;26.20;;;10.60;;
68858;SDS011;55864;49.238;8.092;2023-03-01T08:59:56;24.13;;;10.87;;
68858;SDS011;55864;49.238;8.092;2023-03-01T09:01:57;22.17;;;10.33;;
68858;SDS011;55864;49.238;8.092;2023-03-01T09:03:57;23.80;;;11.17;;
68858;SDS011;55864;49.238;8.092;2023-03-01T09:05:59;24.33;;;10.80;;
68858;SDS011;55864;49.238;8.092;2023-03-01T09:08:00;24.23;;;11.20;;
68858;SDS011;55864;49.238;8.092;2023-03-01T09:10:01;28.07;;;11.23;;
68858;SDS011;55864;49.238;8.092;2023-03-01T09:12:02;22.93;;;10.77;;
68858;SDS011;55864;49.238;8.092;2023-03-01T09:14:04;21.77;;;10.73;;
68858;SDS011;55864;49.238;8.092;2023-03-01T09:16:06;25.83;;;11.13;;
68858;SDS011;55864;49.238;8.092;2023-03-01T09:18:07;23.70;;;11.00;;
68858;SDS011;55864;49.238;8.092;2023-03-01T09:20:08;25.50;;;11.00;;
68858;SDS011;55864;49.238;8.092;2023-03-01T09:22:10;29.37;;;11.47;;
68858;SDS011;55864;49.238;8.092;2023-03-01T09:24:11;27.63;;;11.77;;
68858;SDS011;55864;49.238;8.092;2023-03-01T09:26:15;26.38;;;11.60;;
68858;SDS011;55864;49.238;8.092;2023-03-01T09:28:16;25.27;;;11.03;;
68858;SDS011;55864;49.238;8.092;2023-03-01T09:30:18;22.70;;;10.40;;
68858;SDS011;55864;49.238;8.092;2023-03-01T09:32:19;24.73;;;11.70;;
68858;SDS011;55864;49.238;8.092;2023-03-01T09:34:20;23.87;;;11.17;;
68858;SDS011;55864;49.238;8.092;2023-03-01T09:36:21;26.90;;;11.60;;
68858;SDS011;55864;49.238;8.092;2023-03-01T09:38:22;24.90;;;10.83;;
68858;SDS011;55864;49.238;8.092;2023-03-01T09:40:24;26.67;;;12.07;;
68858;SDS011;55864;49.238;8.092;2023-03-01T09:42:28;24.70;;;11.57;;
68858;SDS011;55864;49.238;8.092;2023-03-01T09:44:34;26.73;;;12.13;;
68858;SDS011;55864;49.238;8.092;2023-03-01T09:46:41;21.80;;;10.87;;
68858;SDS011;55864;49.238;8.092;2023-03-01T09:48:44;26.23;;;11.30;;
68858;SDS011;55864;49.238;8.092;2023-03-01T09:50:50;25.50;;;11.87;;
68858;SDS011;55864;49.238;8.092;2023-03-01T09:52:53;27.33;;;11.23;;
68858;SDS011;55864;49.238;8.092;2023-03-01T09:54:58;23.43;;;11.20;;
68858;SDS011;55864;49.238;8.092;2023-03-01T09:57:01;25.47;;;11.97;;
68858;SDS011;55864;49.238;8.092;2023-03-01T09:59:10;25.13;;;11.90;;
68858;SDS011;55864;49.238;8.092;2023-03-01T10:01:25;24.30;;;12.13;;
68858;SDS011;55864;49.238;8.092;2023-03-01T10:03:33;26.97;;;12.83;;
68858;SDS011;55864;49.238;8.092;2023-03-01T10:05:38;27.97;;;11.87;;
68858;SDS011;55864;49.238;8.092;2023-03-01T10:07:45;26.83;;;12.97;;
68858;SDS011;55864;49.238;8.092;2023-03-01T10:09:51;24.77;;;12.20;;
68858;SDS011;55864;49.238;8.092;2023-03-01T10:11:52;23.37;;;12.20;;
68858;SDS011;55864;49.238;8.092;2023-03-01T10:13:56;24.10;;;11.88;;
68858;SDS011;55864;49.238;8.092;2023-03-01T10:16:03;24.33;;;12.03;;
68858;SDS011;55864;49.238;8.092;2023-03-01T10:18:26;23.87;;;11.87;;
68858;SDS011;55864;49.238;8.092;2023-03-01T10:20:33;24.57;;;12.07;;
68858;SDS011;55864;49.238;8.092;2023-03-01T10:22:42;26.07;;;12.47;;
68858;SDS011;55864;49.238;8.092;2023-03-01T10:24:43;27.73;;;12.13;;
68858;SDS011;55864;49.238;8.092;2023-03-01T10:26:47;25.97;;;12.20;;
68858;SDS011;55864;49.238;8.092;2023-03-01T10:28:54;31.77;;;12.13;;
68858;SDS011;55864;49.238;8.092;2023-03-01T10:31:01;24.03;;;11.20;;
68858;SDS011;55864;49.238;8.092;2023-03-01T10:33:02;24.30;;;11.67;;
68858;SDS011;55864;49.238;8.092;2023-03-01T10:35:15;23.83;;;11.93;;
68858;SDS011;55864;49.238;8.092;2023-03-01T10:37:20;25.88;;;11.95;;
68858;SDS011;55864;49.238;8.092;2023-03-01T10:39:22;27.67;;;12.73;;
68858;SDS011;55864;49.238;8.092;2023-03-01T10:41:24;24.77;;;12.30;;
68858;SDS011;55864;49.238;8.092;2023-03-01T10:43:26;26.03;;;11.87;;
68858;SDS011;55864;49.238;8.092;2023-03-01T10:45:33;25.47;;;11.87;;
68858;SDS011;55864;49.238;8.092;2023-03-01T10:47:35;24.60;;;12.25;;
68858;SDS011;55864;49.238;8.092;2023-03-01T10:49:35;25.73;;;12.57;;
68858;SDS011;55864;49.238;8.092;2023-03-01T10:51:36;24.33;;;12.10;;
68858;SDS011;55864;49.238;8.092;2023-03-01T10:53:41;24.90;;;12.25;;
68858;SDS011;55864;49.238;8.092;2023-03-01T10:55:43;24.77;;;11.90;;
68858;SDS011;55864;49.238;8.092;2023-03-01T10:57:44;22.23;;;11.77;;
68858;SDS011;55864;49.238;8.092;2023-03-01T10:59:44;28.80;;;12.80;;
68858;SDS011;55864;49.238;8.092;2023-03-01T11:01:45;26.97;;;12.13;;
68858;SDS011;55864;49.238;8.092;2023-03-01T11:03:45;28.80;;;11.87;;
68858;SDS011;55864;49.238;8.092;2023-03-01T11:06:19;25.35;;;12.40;;
68858;SDS011;55864;49.238;8.092;2023-03-01T11:08:38;25.50;;;11.97;;
68858;SDS011;55864;49.238;8.092;2023-03-01T11:10:41;24.83;;;11.50;;
68858;SDS011;55864;49.238;8.092;2023-03-01T11:12:42;26.60;;;12.73;;
68858;SDS011;55864;49.238;8.092;2023-03-01T11:14:46;22.30;;;11.77;;
68858;SDS011;55864;49.238;8.092;2023-03-01T11:16:48;25.23;;;12.43;;
68858;SDS011;55864;49.238;8.092;2023-03-01T11:19:00;28.83;;;13.27;;
68858;SDS011;55864;49.238;8.092;2023-03-01T11:21:04;28.07;;;12.67;;
68858;SDS011;55864;49.238;8.092;2023-03-01T11:23:09;25.88;;;12.60;;
68858;SDS011;55864;49.238;8.092;2023-03-01T11:25:12;30.27;;;12.70;;
68858;SDS011;55864;49.238;8.092;2023-03-01T11:27:18;26.70;;;13.10;;
68858;SDS011;55864;49.238;8.092;2023-03-01T11:29:26;25.60;;;12.33;;
68858;SDS011;55864;49.238;8.092;2023-03-01T11:31:30;26.37;;;12.37;;
68858;SDS011;55864;49.238;8.092;2023-03-01T11:33:33;25.00;;;12.10;;
68858;SDS011;55864;49.238;8.092;2023-03-01T11:35:41;26.50;;;13.20;;
68858;SDS011;55864;49.238;8.092;2023-03-01T11:37:50;25.33;;;12.40;;
68858;SDS011;55864;49.238;8.092;2023-03-01T11:40:03;24.17;;;11.90;;
68858;SDS011;55864;49.238;8.092;2023-03-01T11:42:11;26.33;;;12.87;;
68858;SDS011;55864;49.238;8.092;2023-03-01T11:44:17;25.27;;;12.63;;
68858;SDS011;55864;49.238;8.092;2023-03-01T11:46:33;30.87;;;14.00;;
68858;SDS011;55864;49.238;8.092;2023-03-01T11:48:47;23.53;;;11.93;;
68858;SDS011;55864;49.238;8.092;2023-03-01T11:50:52;24.17;;;11.80;;
68858;SDS011;55864;49.238;8.092;2023-03-01T11:53:01;26.17;;;12.17;;
68858;SDS011;55864;49.238;8.092;2023-03-01T11:55:19;24.00;;;12.40;;
68858;SDS011;55864;49.238;8.092;2023-03-01T11:57:34;29.87;;;12.23;;
68858;SDS011;55864;49.238;8.092;2023-03-01T11:59:57;27.13;;;12.57;;
68858;SDS011;55864;49.238;8.092;2023-03-01T12:06:59;27.00;;;12.00;;
68858;SDS011;55864;49.238;8.092;2023-03-01T12:11:35;35.67;;;14.23;;